Startpagina
METAR-TAF:

METAR-TAF

Vliegvelden :

Kemmerer, Wyoming, Verenigde Staten

breedte: 41-49-27N, lengte: 110-33-25W, hoogte: 2220 m

Actueel weer

Dit bericht is 26 minuten geleden gemaakt, om 15:55 UTC
Wind 22 kt uit het westen met uitschieters tot 28 kt
Temperatuur 5°C
Vochtigheid 65%
Druk 1028 hPa
Zicht: 16.1 km
Onbewolkt

METAR: KEMM 181555Z AUTO 26022G28KT 10SM CLR 05/M01 A3035 RMK AO2

Tijdstip: 10:21 (16:21 UTC)


TAF: ontbreekt

Waarnemingen en weersverwachtingen van meer dan 4000 vliegvelden (METAR en TAF).

De beschikbare stations zijn de gele en rode punten op de kaart.

Ga met uw muis naar het station om de naam te zien.

Klik dan om waarnemingen en weersverwachtingen te zien.

kaart wijzigen: klik op de groene knoppen met een zwart kruis om in te zoomen, op de groene knop met een streepje om uit te zoomen of op de groene pijlen voor aangrenzende kaarten.


METAR-TAF: